sensor_id;sensor_type;location;lat;lon;timestamp;pressure;altitude;pressure_sealevel;temperature;humidity
77207;BME280;66190;50.708;7.906;2023-07-13T00:00:19;96388.50;;;16.57;57.11
77207;BME280;66190;50.708;7.906;2023-07-13T00:02:44;96384.28;;;16.38;57.77
77207;BME280;66190;50.708;7.906;2023-07-13T00:05:09;96391.72;;;16.31;58.02
77207;BME280;66190;50.708;7.906;2023-07-13T00:07:35;96382.06;;;16.24;58.10
77207;BME280;66190;50.708;7.906;2023-07-13T00:10:02;96382.41;;;16.27;58.40
77207;BME280;66190;50.708;7.906;2023-07-13T00:12:36;96383.13;;;16.11;59.08
77207;BME280;66190;50.708;7.906;2023-07-13T00:15:07;96378.78;;;16.10;58.90
77207;BME280;66190;50.708;7.906;2023-07-13T00:17:33;96379.28;;;16.07;59.78
77207;BME280;66190;50.708;7.906;2023-07-13T00:19:58;96379.75;;;15.93;59.38
77207;BME280;66190;50.708;7.906;2023-07-13T00:22:24;96382.09;;;16.01;59.69
77207;BME280;66190;50.708;7.906;2023-07-13T00:24:53;96381.75;;;15.97;59.68
77207;BME280;66190;50.708;7.906;2023-07-13T00:27:22;96381.53;;;15.87;59.79
77207;BME280;66190;50.708;7.906;2023-07-13T00:29:47;96373.50;;;15.80;60.15
77207;BME280;66190;50.708;7.906;2023-07-13T00:32:13;96369.97;;;15.80;60.27
77207;BME280;66190;50.708;7.906;2023-07-13T00:34:39;96368.31;;;15.79;60.06
77207;BME280;66190;50.708;7.906;2023-07-13T00:37:06;96370.56;;;15.70;60.40
77207;BME280;66190;50.708;7.906;2023-07-13T00:39:34;96371.13;;;15.72;60.89
77207;BME280;66190;50.708;7.906;2023-07-13T00:42:01;96362.66;;;15.69;61.41
77207;BME280;66190;50.708;7.906;2023-07-13T00:44:27;96372.81;;;15.73;61.99
77207;BME280;66190;50.708;7.906;2023-07-13T00:46:52;96372.44;;;15.70;61.83
77207;BME280;66190;50.708;7.906;2023-07-13T00:49:20;96369.50;;;15.71;61.18
77207;BME280;66190;50.708;7.906;2023-07-13T00:51:59;96366.44;;;15.68;61.98
77207;BME280;66190;50.708;7.906;2023-07-13T00:54:33;96371.38;;;15.71;61.41
77207;BME280;66190;50.708;7.906;2023-07-13T00:57:02;96374.94;;;15.60;61.27
77207;BME280;66190;50.708;7.906;2023-07-13T00:59:28;96379.28;;;15.61;62.20
77207;BME280;66190;50.708;7.906;2023-07-13T01:01:55;96376.56;;;15.61;61.90
77207;BME280;66190;50.708;7.906;2023-07-13T01:04:20;96376.47;;;15.56;61.51
77207;BME280;66190;50.708;7.906;2023-07-13T01:06:46;96381.75;;;15.62;61.24
77207;BME280;66190;50.708;7.906;2023-07-13T01:09:12;96378.25;;;15.62;61.32
77207;BME280;66190;50.708;7.906;2023-07-13T01:11:38;96375.53;;;15.62;61.38
77207;BME280;66190;50.708;7.906;2023-07-13T01:14:04;96373.25;;;15.59;61.78
77207;BME280;66190;50.708;7.906;2023-07-13T01:16:34;96383.75;;;15.55;62.21
77207;BME280;66190;50.708;7.906;2023-07-13T01:19:00;96385.53;;;15.50;62.90
77207;BME280;66190;50.708;7.906;2023-07-13T01:21:31;96383.75;;;15.44;63.77
77207;BME280;66190;50.708;7.906;2023-07-13T01:23:57;96383.13;;;15.30;64.32
77207;BME280;66190;50.708;7.906;2023-07-13T01:26:23;96383.56;;;15.27;63.55
77207;BME280;66190;50.708;7.906;2023-07-13T01:28:48;96383.31;;;15.17;64.05
77207;BME280;66190;50.708;7.906;2023-07-13T01:31:14;96377.09;;;15.17;63.98
77207;BME280;66190;50.708;7.906;2023-07-13T01:33:40;96372.94;;;15.03;63.85
77207;BME280;66190;50.708;7.906;2023-07-13T01:36:07;96365.50;;;14.98;64.50
77207;BME280;66190;50.708;7.906;2023-07-13T01:38:34;96373.25;;;14.95;63.68
77207;BME280;66190;50.708;7.906;2023-07-13T01:41:00;96366.75;;;14.84;63.91
77207;BME280;66190;50.708;7.906;2023-07-13T01:43:26;96374.75;;;14.79;64.07
77207;BME280;66190;50.708;7.906;2023-07-13T01:45:51;96371.06;;;14.73;65.28
77207;BME280;66190;50.708;7.906;2023-07-13T01:48:17;96366.22;;;14.64;64.85
77207;BME280;66190;50.708;7.906;2023-07-13T01:50:42;96370.91;;;14.57;64.83
77207;BME280;66190;50.708;7.906;2023-07-13T01:53:08;96361.72;;;14.58;65.14
77207;BME280;66190;50.708;7.906;2023-07-13T01:55:35;96366.47;;;14.62;64.59
77207;BME280;66190;50.708;7.906;2023-07-13T01:58:01;96366.91;;;14.59;64.74
77207;BME280;66190;50.708;7.906;2023-07-13T02:00:26;96368.56;;;14.60;64.65
77207;BME280;66190;50.708;7.906;2023-07-13T02:02:52;96365.25;;;14.58;65.62
77207;BME280;66190;50.708;7.906;2023-07-13T02:05:18;96373.16;;;14.60;65.93
77207;BME280;66190;50.708;7.906;2023-07-13T02:07:44;96370.53;;;14.53;64.90
77207;BME280;66190;50.708;7.906;2023-07-13T02:10:11;96371.81;;;14.51;64.99
77207;BME280;66190;50.708;7.906;2023-07-13T02:12:37;96363.78;;;14.44;65.14
77207;BME280;66190;50.708;7.906;2023-07-13T02:15:04;96361.44;;;14.48;65.34
77207;BME280;66190;50.708;7.906;2023-07-13T02:17:29;96370.41;;;14.48;65.48
77207;BME280;66190;50.708;7.906;2023-07-13T02:19:55;96362.53;;;14.47;65.93
77207;BME280;66190;50.708;7.906;2023-07-13T02:22:20;96374.25;;;14.41;66.89
77207;BME280;66190;50.708;7.906;2023-07-13T02:24:46;96363.16;;;14.31;66.89
77207;BME280;66190;50.708;7.906;2023-07-13T02:27:12;96372.59;;;14.22;67.51
77207;BME280;66190;50.708;7.906;2023-07-13T02:29:37;96368.53;;;14.13;68.38
77207;BME280;66190;50.708;7.906;2023-07-13T02:32:02;96381.13;;;14.07;68.36
77207;BME280;66190;50.708;7.906;2023-07-13T02:34:28;96382.69;;;13.97;68.81
77207;BME280;66190;50.708;7.906;2023-07-13T02:36:53;96376.94;;;13.87;69.16
77207;BME280;66190;50.708;7.906;2023-07-13T02:39:19;96373.56;;;13.73;69.56
77207;BME280;66190;50.708;7.906;2023-07-13T02:41:44;96373.25;;;13.63;69.90
77207;BME280;66190;50.708;7.906;2023-07-13T02:44:12;96378.97;;;13.55;70.04
77207;BME280;66190;50.708;7.906;2023-07-13T02:46:38;96381.72;;;13.48;70.21
77207;BME280;66190;50.708;7.906;2023-07-13T02:49:04;96382.84;;;13.41;70.71
77207;BME280;66190;50.708;7.906;2023-07-13T02:51:29;96384.31;;;13.37;70.65
77207;BME280;66190;50.708;7.906;2023-07-13T02:53:54;96386.19;;;13.36;70.78
77207;BME280;66190;50.708;7.906;2023-07-13T02:56:25;96384.16;;;13.32;70.62
77207;BME280;66190;50.708;7.906;2023-07-13T02:58:51;96387.31;;;13.29;71.00
77207;BME280;66190;50.708;7.906;2023-07-13T03:01:17;96394.44;;;13.23;71.10
77207;BME280;66190;50.708;7.906;2023-07-13T03:03:44;96385.72;;;13.21;71.06
77207;BME280;66190;50.708;7.906;2023-07-13T03:06:11;96383.06;;;13.15;70.93
77207;BME280;66190;50.708;7.906;2023-07-13T03:08:36;96380.59;;;13.13;71.20
77207;BME280;66190;50.708;7.906;2023-07-13T03:11:05;96389.94;;;13.11;71.42
77207;BME280;66190;50.708;7.906;2023-07-13T03:13:30;96384.19;;;13.01;71.75
77207;BME280;66190;50.708;7.906;2023-07-13T03:15:56;96384.25;;;12.94;72.23
77207;BME280;66190;50.708;7.906;2023-07-13T03:18:21;96387.56;;;12.90;72.34
77207;BME280;66190;50.708;7.906;2023-07-13T03:20:50;96386.38;;;12.86;72.72
77207;BME280;66190;50.708;7.906;2023-07-13T03:23:16;96396.34;;;12.85;72.69
77207;BME280;66190;50.708;7.906;2023-07-13T03:25:42;96392.41;;;12.81;72.60
77207;BME280;66190;50.708;7.906;2023-07-13T03:28:07;96402.59;;;12.79;72.57
77207;BME280;66190;50.708;7.906;2023-07-13T03:30:33;96401.56;;;12.80;72.46
77207;BME280;66190;50.708;7.906;2023-07-13T03:32:58;96400.56;;;12.75;73.20
77207;BME280;66190;50.708;7.906;2023-07-13T03:35:23;96396.59;;;12.77;73.23
77207;BME280;66190;50.708;7.906;2023-07-13T03:37:49;96401.34;;;12.82;73.18
77207;BME280;66190;50.708;7.906;2023-07-13T03:40:14;96403.84;;;12.83;72.63
77207;BME280;66190;50.708;7.906;2023-07-13T03:42:40;96402.38;;;12.81;72.66
77207;BME280;66190;50.708;7.906;2023-07-13T03:45:05;96403.22;;;12.81;72.62
77207;BME280;66190;50.708;7.906;2023-07-13T03:47:31;96408.78;;;12.86;72.66
77207;BME280;66190;50.708;7.906;2023-07-13T03:49:56;96412.31;;;12.87;73.14
77207;BME280;66190;50.708;7.906;2023-07-13T03:52:22;96408.56;;;12.88;73.72
77207;BME280;66190;50.708;7.906;2023-07-13T03:54:47;96402.13;;;12.89;73.96
77207;BME280;66190;50.708;7.906;2023-07-13T03:57:13;96412.66;;;12.97;73.67
77207;BME280;66190;50.708;7.906;2023-07-13T03:59:38;96407.84;;;13.05;73.91
77207;BME280;66190;50.708;7.906;2023-07-13T04:02:04;96408.84;;;13.11;74.30
77207;BME280;66190;50.708;7.906;2023-07-13T04:04:30;96408.00;;;13.17;73.88
77207;BME280;66190;50.708;7.906;2023-07-13T04:06:57;96395.25;;;13.24;73.94
77207;BME280;66190;50.708;7.906;2023-07-13T04:09:24;96405.63;;;13.27;73.25
77207;BME280;66190;50.708;7.906;2023-07-13T04:11:50;96410.13;;;13.33;73.11
77207;BME280;66190;50.708;7.906;2023-07-13T04:14:15;96405.28;;;13.41;72.64
77207;BME280;66190;50.708;7.906;2023-07-13T04:16:41;96409.81;;;13.47;72.96
77207;BME280;66190;50.708;7.906;2023-07-13T04:19:08;96414.31;;;13.53;72.69
77207;BME280;66190;50.708;7.906;2023-07-13T04:21:35;96420.72;;;13.59;72.17
77207;BME280;66190;50.708;7.906;2023-07-13T04:24:02;96421.69;;;13.64;71.35
77207;BME280;66190;50.708;7.906;2023-07-13T04:26:28;96422.69;;;13.70;70.58
77207;BME280;66190;50.708;7.906;2023-07-13T04:28:54;96410.16;;;13.76;70.77
77207;BME280;66190;50.708;7.906;2023-07-13T04:31:20;96408.88;;;13.78;70.75
77207;BME280;66190;50.708;7.906;2023-07-13T04:33:46;96416.34;;;13.83;70.49
77207;BME280;66190;50.708;7.906;2023-07-13T04:36:12;96414.44;;;13.83;70.68
77207;BME280;66190;50.708;7.906;2023-07-13T04:38:37;96423.13;;;13.92;70.05
77207;BME280;66190;50.708;7.906;2023-07-13T04:41:05;96424.66;;;13.99;69.50
77207;BME280;66190;50.708;7.906;2023-07-13T04:43:31;96414.97;;;14.10;69.26
77207;BME280;66190;50.708;7.906;2023-07-13T04:46:02;96426.56;;;14.17;68.47
77207;BME280;66190;50.708;7.906;2023-07-13T04:48:28;96422.38;;;14.21;67.93
77207;BME280;66190;50.708;7.906;2023-07-13T04:50:55;96424.31;;;14.32;67.96
77207;BME280;66190;50.708;7.906;2023-07-13T04:53:21;96423.91;;;14.35;67.87
77207;BME280;66190;50.708;7.906;2023-07-13T04:55:46;96429.00;;;14.43;67.76
77207;BME280;66190;50.708;7.906;2023-07-13T04:58:12;96426.19;;;14.49;67.50
77207;BME280;66190;50.708;7.906;2023-07-13T05:00:38;96423.75;;;14.59;66.67
77207;BME280;66190;50.708;7.906;2023-07-13T05:03:04;96424.75;;;14.65;66.64
77207;BME280;66190;50.708;7.906;2023-07-13T05:05:30;96422.78;;;14.72;66.94
77207;BME280;66190;50.708;7.906;2023-07-13T05:07:55;96422.34;;;14.75;65.87
77207;BME280;66190;50.708;7.906;2023-07-13T05:10:21;96416.44;;;14.78;65.98
77207;BME280;66190;50.708;7.906;2023-07-13T05:12:47;96427.66;;;14.82;66.15
77207;BME280;66190;50.708;7.906;2023-07-13T05:15:12;96429.91;;;14.85;65.58
77207;BME280;66190;50.708;7.906;2023-07-13T05:17:38;96434.84;;;14.88;65.25
77207;BME280;66190;50.708;7.906;2023-07-13T05:20:08;96429.44;;;14.88;65.41
77207;BME280;66190;50.708;7.906;2023-07-13T05:22:35;96436.41;;;14.95;66.12
77207;BME280;66190;50.708;7.906;2023-07-13T05:25:01;96435.56;;;14.95;65.87
77207;BME280;66190;50.708;7.906;2023-07-13T05:27:27;96437.47;;;14.94;65.59
77207;BME280;66190;50.708;7.906;2023-07-13T05:29:52;96439.34;;;14.94;65.86
77207;BME280;66190;50.708;7.906;2023-07-13T05:32:18;96444.78;;;14.94;65.72
77207;BME280;66190;50.708;7.906;2023-07-13T05:34:44;96446.88;;;14.92;65.99
77207;BME280;66190;50.708;7.906;2023-07-13T05:37:09;96452.06;;;14.93;66.25
77207;BME280;66190;50.708;7.906;2023-07-13T05:39:34;96448.47;;;14.99;66.83
77207;BME280;66190;50.708;7.906;2023-07-13T05:42:00;96446.31;;;15.01;66.21
77207;BME280;66190;50.708;7.906;2023-07-13T05:44:25;96454.53;;;14.95;66.21
77207;BME280;66190;50.708;7.906;2023-07-13T05:46:51;96461.06;;;15.05;67.31
77207;BME280;66190;50.708;7.906;2023-07-13T05:49:16;96459.44;;;15.04;66.50
77207;BME280;66190;50.708;7.906;2023-07-13T05:51:42;96458.13;;;15.07;66.18
77207;BME280;66190;50.708;7.906;2023-07-13T05:54:07;96458.72;;;15.09;66.47
77207;BME280;66190;50.708;7.906;2023-07-13T05:56:32;96455.41;;;15.07;67.44
77207;BME280;66190;50.708;7.906;2023-07-13T05:58:58;96454.38;;;15.08;66.60
77207;BME280;66190;50.708;7.906;2023-07-13T06:01:23;96456.97;;;15.14;66.83
77207;BME280;66190;50.708;7.906;2023-07-13T06:03:49;96466.06;;;15.20;67.24
77207;BME280;66190;50.708;7.906;2023-07-13T06:06:15;96460.88;;;15.18;67.03
77207;BME280;66190;50.708;7.906;2023-07-13T06:08:41;96465.94;;;15.15;66.86
77207;BME280;66190;50.708;7.906;2023-07-13T06:11:11;96468.91;;;15.25;67.30
77207;BME280;66190;50.708;7.906;2023-07-13T06:13:37;96464.91;;;15.27;67.37
77207;BME280;66190;50.708;7.906;2023-07-13T06:16:03;96470.16;;;15.40;67.11
77207;BME280;66190;50.708;7.906;2023-07-13T06:18:30;96483.50;;;15.42;66.78
77207;BME280;66190;50.708;7.906;2023-07-13T06:20:56;96475.72;;;15.45;66.78
77207;BME280;66190;50.708;7.906;2023-07-13T06:23:22;96478.06;;;15.42;66.93
77207;BME280;66190;50.708;7.906;2023-07-13T06:25:48;96475.13;;;15.43;67.04
77207;BME280;66190;50.708;7.906;2023-07-13T06:28:13;96479.03;;;15.47;67.19
77207;BME280;66190;50.708;7.906;2023-07-13T06:30:39;96474.94;;;15.56;67.30
77207;BME280;66190;50.708;7.906;2023-07-13T06:33:05;96479.03;;;15.47;66.64
77207;BME280;66190;50.708;7.906;2023-07-13T06:35:30;96484.94;;;15.56;67.53
77207;BME280;66190;50.708;7.906;2023-07-13T06:37:55;96476.94;;;15.61;66.79
77207;BME280;66190;50.708;7.906;2023-07-13T06:40:21;96476.56;;;15.69;66.88
77207;BME280;66190;50.708;7.906;2023-07-13T06:42:46;96472.69;;;15.65;66.02
77207;BME280;66190;50.708;7.906;2023-07-13T06:45:11;96479.88;;;15.71;66.39
77207;BME280;66190;50.708;7.906;2023-07-13T06:47:37;96493.72;;;15.81;66.03
77207;BME280;66190;50.708;7.906;2023-07-13T06:50:02;96483.06;;;15.79;66.17
77207;BME280;66190;50.708;7.906;2023-07-13T06:52:28;96490.72;;;15.71;65.76
77207;BME280;66190;50.708;7.906;2023-07-13T06:54:53;96501.16;;;15.85;66.40
77207;BME280;66190;50.708;7.906;2023-07-13T06:57:18;96494.09;;;15.84;66.00
77207;BME280;66190;50.708;7.906;2023-07-13T06:59:44;96494.78;;;16.03;66.72
77207;BME280;66190;50.708;7.906;2023-07-13T07:02:10;96497.97;;;16.12;65.61
77207;BME280;66190;50.708;7.906;2023-07-13T07:04:36;96493.38;;;16.12;65.76
77207;BME280;66190;50.708;7.906;2023-07-13T07:07:01;96503.75;;;16.27;65.92
77207;BME280;66190;50.708;7.906;2023-07-13T07:09:26;96501.16;;;16.32;65.15
77207;BME280;66190;50.708;7.906;2023-07-13T07:11:52;96507.41;;;16.32;65.26
77207;BME280;66190;50.708;7.906;2023-07-13T07:14:17;96494.53;;;16.39;65.07
77207;BME280;66190;50.708;7.906;2023-07-13T07:16:43;96499.41;;;16.49;64.96
77207;BME280;66190;50.708;7.906;2023-07-13T07:19:08;96499.41;;;16.49;65.39
77207;BME280;66190;50.708;7.906;2023-07-13T07:21:33;96503.53;;;16.51;64.30
77207;BME280;66190;50.708;7.906;2023-07-13T07:23:59;96501.66;;;16.52;64.01
77207;BME280;66190;50.708;7.906;2023-07-13T07:26:25;96508.72;;;16.53;64.77
77207;BME280;66190;50.708;7.906;2023-07-13T07:28:50;96503.16;;;16.59;63.90
77207;BME280;66190;50.708;7.906;2023-07-13T07:31:16;96508.38;;;16.61;64.19
77207;BME280;66190;50.708;7.906;2023-07-13T07:33:41;96503.75;;;16.61;63.67
77207;BME280;66190;50.708;7.906;2023-07-13T07:36:07;96506.00;;;16.64;65.22
77207;BME280;66190;50.708;7.906;2023-07-13T07:38:32;96499.59;;;16.70;63.23
77207;BME280;66190;50.708;7.906;2023-07-13T07:40:57;96505.47;;;16.79;63.11
77207;BME280;66190;50.708;7.906;2023-07-13T07:43:23;96501.72;;;16.80;62.81
77207;BME280;66190;50.708;7.906;2023-07-13T07:45:48;96502.28;;;16.82;62.23
77207;BME280;66190;50.708;7.906;2023-07-13T07:48:14;96498.38;;;16.89;63.39
77207;BME280;66190;50.708;7.906;2023-07-13T07:50:39;96499.78;;;16.92;62.51
77207;BME280;66190;50.708;7.906;2023-07-13T07:53:06;96504.72;;;16.95;62.46
77207;BME280;66190;50.708;7.906;2023-07-13T07:55:35;96514.78;;;16.94;62.33
77207;BME280;66190;50.708;7.906;2023-07-13T07:58:01;96524.09;;;16.98;62.31
77207;BME280;66190;50.708;7.906;2023-07-13T08:00:27;96519.00;;;17.02;61.65
77207;BME280;66190;50.708;7.906;2023-07-13T08:02:55;96516.63;;;17.06;61.85
77207;BME280;66190;50.708;7.906;2023-07-13T08:05:21;96507.75;;;17.10;62.31
77207;BME280;66190;50.708;7.906;2023-07-13T08:07:46;96510.66;;;17.20;61.78
77207;BME280;66190;50.708;7.906;2023-07-13T08:10:17;96515.53;;;17.18;61.67
77207;BME280;66190;50.708;7.906;2023-07-13T08:12:42;96522.03;;;17.17;61.28
77207;BME280;66190;50.708;7.906;2023-07-13T08:15:14;96515.28;;;17.20;62.31
77207;BME280;66190;50.708;7.906;2023-07-13T08:17:40;96518.69;;;17.27;61.11
77207;BME280;66190;50.708;7.906;2023-07-13T08:20:06;96525.06;;;17.32;61.71
77207;BME280;66190;50.708;7.906;2023-07-13T08:22:33;96508.00;;;17.37;60.25
77207;BME280;66190;50.708;7.906;2023-07-13T08:24:59;96513.94;;;17.34;60.39
77207;BME280;66190;50.708;7.906;2023-07-13T08:27:26;96512.34;;;17.38;59.80
77207;BME280;66190;50.708;7.906;2023-07-13T08:29:52;96519.22;;;17.40;60.62
77207;BME280;66190;50.708;7.906;2023-07-13T08:32:19;96517.38;;;17.57;60.32
77207;BME280;66190;50.708;7.906;2023-07-13T08:34:45;96511.19;;;17.62;60.89
77207;BME280;66190;50.708;7.906;2023-07-13T08:37:10;96519.06;;;17.75;60.96
77207;BME280;66190;50.708;7.906;2023-07-13T08:39:36;96519.47;;;17.67;60.07
77207;BME280;66190;50.708;7.906;2023-07-13T08:42:05;96518.13;;;17.69;59.96
77207;BME280;66190;50.708;7.906;2023-07-13T08:45:13;96518.31;;;17.63;60.02
77207;BME280;66190;50.708;7.906;2023-07-13T08:47:39;96519.56;;;17.72;61.21
77207;BME280;66190;50.708;7.906;2023-07-13T08:50:11;96519.38;;;17.95;60.44
77207;BME280;66190;50.708;7.906;2023-07-13T08:52:41;96510.34;;;17.89;59.58
77207;BME280;66190;50.708;7.906;2023-07-13T08:55:27;96517.00;;;18.15;61.79
77207;BME280;66190;50.708;7.906;2023-07-13T08:58:01;96520.06;;;18.02;59.74
77207;BME280;66190;50.708;7.906;2023-07-13T09:00:50;96513.28;;;18.21;59.68
77207;BME280;66190;50.708;7.906;2023-07-13T09:03:26;96512.03;;;18.29;59.16
77207;BME280;66190;50.708;7.906;2023-07-13T09:05:58;96507.69;;;18.28;58.55
77207;BME280;66190;50.708;7.906;2023-07-13T09:08:46;96515.75;;;18.39;59.02
77207;BME280;66190;50.708;7.906;2023-07-13T09:11:46;96506.91;;;18.49;58.81
77207;BME280;66190;50.708;7.906;2023-07-13T09:14:32;96514.59;;;18.35;57.28
77207;BME280;66190;50.708;7.906;2023-07-13T09:16:59;96510.97;;;18.30;57.75
77207;BME280;66190;50.708;7.906;2023-07-13T09:19:30;96501.84;;;18.19;57.63
77207;BME280;66190;50.708;7.906;2023-07-13T09:21:59;96505.09;;;18.38;58.68
77207;BME280;66190;50.708;7.906;2023-07-13T09:24:38;96509.16;;;18.35;59.56
77207;BME280;66190;50.708;7.906;2023-07-13T09:27:14;96515.59;;;18.29;58.25
77207;BME280;66190;50.708;7.906;2023-07-13T09:29:47;96508.41;;;18.40;59.78
77207;BME280;66190;50.708;7.906;2023-07-13T09:32:18;96515.75;;;18.39;58.58
77207;BME280;66190;50.708;7.906;2023-07-13T09:34:51;96511.13;;;18.56;58.18
77207;BME280;66190;50.708;7.906;2023-07-13T09:37:18;96506.75;;;18.55;56.77
77207;BME280;66190;50.708;7.906;2023-07-13T09:39:44;96512.03;;;18.45;57.88
77207;BME280;66190;50.708;7.906;2023-07-13T09:44:38;96518.13;;;18.69;57.25
77207;BME280;66190;50.708;7.906;2023-07-13T09:47:19;96517.03;;;18.70;57.22
77207;BME280;66190;50.708;7.906;2023-07-13T09:49:47;96512.94;;;18.67;56.12
77207;BME280;66190;50.708;7.906;2023-07-13T09:52:15;96520.13;;;18.78;57.92
77207;BME280;66190;50.708;7.906;2023-07-13T09:54:45;96515.25;;;18.80;55.26
77207;BME280;66190;50.708;7.906;2023-07-13T09:57:16;96518.44;;;19.15;56.60
77207;BME280;66190;50.708;7.906;2023-07-13T09:59:50;96513.50;;;19.12;55.85
77207;BME280;66190;50.708;7.906;2023-07-13T10:02:31;96507.91;;;19.46;55.27
77207;BME280;66190;50.708;7.906;2023-07-13T10:05:11;96509.16;;;19.60;55.41
77207;BME280;66190;50.708;7.906;2023-07-13T10:07:43;96513.97;;;19.79;55.32
77207;BME280;66190;50.708;7.906;2023-07-13T10:10:37;96520.44;;;19.68;53.23
77207;BME280;66190;50.708;7.906;2023-07-13T10:13:02;96517.78;;;19.78;53.96
77207;BME280;66190;50.708;7.906;2023-07-13T10:15:30;96514.00;;;19.84;53.43
77207;BME280;66190;50.708;7.906;2023-07-13T10:17:55;96515.47;;;19.92;52.79
77207;BME280;66190;50.708;7.906;2023-07-13T10:20:24;96519.44;;;20.11;52.85
77207;BME280;66190;50.708;7.906;2023-07-13T10:23:02;96510.53;;;19.89;53.56
77207;BME280;66190;50.708;7.906;2023-07-13T10:25:32;96513.91;;;20.01;52.77
77207;BME280;66190;50.708;7.906;2023-07-13T10:28:27;96518.28;;;20.02;52.43
77207;BME280;66190;50.708;7.906;2023-07-13T10:30:56;96524.25;;;20.25;53.42
77207;BME280;66190;50.708;7.906;2023-07-13T10:33:23;96514.91;;;20.21;50.57
77207;BME280;66190;50.708;7.906;2023-07-13T10:35:51;96515.50;;;20.23;51.51
77207;BME280;66190;50.708;7.906;2023-07-13T10:38:22;96518.75;;;19.94;51.06
77207;BME280;66190;50.708;7.906;2023-07-13T10:41:02;96524.94;;;19.84;50.86
77207;BME280;66190;50.708;7.906;2023-07-13T10:43:43;96525.56;;;19.91;51.04
77207;BME280;66190;50.708;7.906;2023-07-13T10:46:13;96526.34;;;19.87;51.02
77207;BME280;66190;50.708;7.906;2023-07-13T10:48:41;96535.66;;;19.91;51.67
77207;BME280;66190;50.708;7.906;2023-07-13T10:51:10;96522.34;;;19.68;51.58
77207;BME280;66190;50.708;7.906;2023-07-13T10:53:38;96524.84;;;19.74;52.90
77207;BME280;66190;50.708;7.906;2023-07-13T10:58:42;96535.38;;;20.19;50.62
77207;BME280;66190;50.708;7.906;2023-07-13T11:01:16;96532.00;;;20.39;50.62
77207;BME280;66190;50.708;7.906;2023-07-13T11:03:56;96532.00;;;20.39;49.70
77207;BME280;66190;50.708;7.906;2023-07-13T11:06:30;96546.16;;;20.04;49.88
77207;BME280;66190;50.708;7.906;2023-07-13T11:09:17;96542.47;;;19.88;51.26
77207;BME280;66190;50.708;7.906;2023-07-13T11:11:43;96539.06;;;20.03;51.64
77207;BME280;66190;50.708;7.906;2023-07-13T11:19:52;96533.72;;;20.50;50.51
77207;BME280;66190;50.708;7.906;2023-07-13T11:22:24;96535.97;;;20.63;48.43
77207;BME280;66190;50.708;7.906;2023-07-13T11:24:58;96532.06;;;20.49;46.80
77207;BME280;66190;50.708;7.906;2023-07-13T11:27:35;96531.28;;;20.53;49.12
77207;BME280;66190;50.708;7.906;2023-07-13T11:32:38;96531.91;;;20.65;47.98
77207;BME280;66190;50.708;7.906;2023-07-13T11:35:04;96525.03;;;20.63;49.20
77207;BME280;66190;50.708;7.906;2023-07-13T11:37:30;96529.38;;;20.54;49.51
77207;BME280;66190;50.708;7.906;2023-07-13T11:39:57;96536.81;;;20.63;49.83
77207;BME280;66190;50.708;7.906;2023-07-13T11:42:22;96528.84;;;20.57;48.81
77207;BME280;66190;50.708;7.906;2023-07-13T11:44:50;96541.03;;;20.39;50.11
77207;BME280;66190;50.708;7.906;2023-07-13T11:47:21;96545.97;;;20.15;49.58
77207;BME280;66190;50.708;7.906;2023-07-13T11:49:53;96541.72;;;19.93;50.64
77207;BME280;66190;50.708;7.906;2023-07-13T11:52:33;96553.91;;;19.85;51.54
77207;BME280;66190;50.708;7.906;2023-07-13T11:55:02;96545.66;;;19.80;50.55
77207;BME280;66190;50.708;7.906;2023-07-13T11:57:31;96550.59;;;19.83;49.87
77207;BME280;66190;50.708;7.906;2023-07-13T12:00:00;96556.81;;;20.05;50.09
77207;BME280;66190;50.708;7.906;2023-07-13T12:02:38;96546.13;;;20.25;48.65
77207;BME280;66190;50.708;7.906;2023-07-13T12:05:06;96538.38;;;20.54;48.49
77207;BME280;66190;50.708;7.906;2023-07-13T12:07:35;96530.94;;;20.86;48.45
77207;BME280;66190;50.708;7.906;2023-07-13T12:12:47;96540.44;;;20.74;47.92
77207;BME280;66190;50.708;7.906;2023-07-13T12:15:13;96549.47;;;20.74;48.39
77207;BME280;66190;50.708;7.906;2023-07-13T12:17:38;96542.63;;;20.77;48.47
77207;BME280;66190;50.708;7.906;2023-07-13T12:20:19;96548.28;;;20.60;47.93
77207;BME280;66190;50.708;7.906;2023-07-13T12:22:47;96548.53;;;20.54;49.28
77207;BME280;66190;50.708;7.906;2023-07-13T12:25:12;96554.81;;;20.59;50.62
77207;BME280;66190;50.708;7.906;2023-07-13T12:27:38;96559.75;;;20.57;49.72
77207;BME280;66190;50.708;7.906;2023-07-13T12:30:27;96555.63;;;20.55;48.97
77207;BME280;66190;50.708;7.906;2023-07-13T12:33:00;96552.56;;;20.46;48.94
77207;BME280;66190;50.708;7.906;2023-07-13T12:35:29;96554.53;;;20.56;49.57
77207;BME280;66190;50.708;7.906;2023-07-13T12:37:57;96556.47;;;20.60;52.13
77207;BME280;66190;50.708;7.906;2023-07-13T12:40:31;96560.78;;;20.51;50.99
77207;BME280;66190;50.708;7.906;2023-07-13T12:42:58;96559.34;;;20.44;51.29
77207;BME280;66190;50.708;7.906;2023-07-13T12:45:26;96578.56;;;20.17;50.41
77207;BME280;66190;50.708;7.906;2023-07-13T12:47:55;96568.75;;;19.94;51.04
77207;BME280;66190;50.708;7.906;2023-07-13T12:50:29;96576.69;;;19.96;51.18
77207;BME280;66190;50.708;7.906;2023-07-13T12:53:01;96577.00;;;19.99;51.51
77207;BME280;66190;50.708;7.906;2023-07-13T12:55:28;96583.22;;;20.21;51.11
77207;BME280;66190;50.708;7.906;2023-07-13T12:57:58;96578.69;;;20.32;51.43
77207;BME280;66190;50.708;7.906;2023-07-13T13:02:53;96580.31;;;20.33;51.20
77207;BME280;66190;50.708;7.906;2023-07-13T13:05:18;96581.41;;;20.32;50.13
77207;BME280;66190;50.708;7.906;2023-07-13T13:07:51;96583.69;;;20.13;48.89
77207;BME280;66190;50.708;7.906;2023-07-13T13:10:17;96590.56;;;20.16;48.46
77207;BME280;66190;50.708;7.906;2023-07-13T13:12:42;96576.94;;;20.21;47.12
77207;BME280;66190;50.708;7.906;2023-07-13T13:15:09;96590.72;;;20.31;47.29
77207;BME280;66190;50.708;7.906;2023-07-13T13:17:36;96584.19;;;20.37;47.65
77207;BME280;66190;50.708;7.906;2023-07-13T13:20:12;96593.38;;;20.58;47.93
77207;BME280;66190;50.708;7.906;2023-07-13T13:22:38;96575.13;;;20.68;48.06